Time;durP1;ratioP1;P1;durP2;ratioP2;P2;SDS_P1;SDS_P2;PMS_P1;PMS_P2;Temp;Humidity;BMP_temperature;BMP_pressure;BME280_temperature;BME280_humidity;BME280_pressure;Samples;Min_cycle;Max_cycle;Signal;HPM_P1;HPM_P2
2022/08/28 00:02:14;;;;;;;85.75;19.13;;;;;;;;;;5046521;28;20049;-64
2022/08/28 00:04:48;;;;;;;48.13;18.30;;;;;;;;;;5048415;28;20444;-64
2022/08/28 00:07:15;;;;;;;50.30;19.10;;;;;;;;;;5041714;28;20051;-64
2022/08/28 00:09:42;;;;;;;48.65;19.83;;;;;;;;;;5054650;28;20061;-64
2022/08/28 00:12:17;;;;;;;54.47;20.02;;;;;;;;;;5050720;28;20060;-65
2022/08/28 00:14:44;;;;;;;51.97;19.10;;;;;;;;;;5056194;28;20060;-55
2022/08/28 00:17:11;;;;;;;86.00;20.98;;;;;;;;;;5053208;28;20076;-57
2022/08/28 00:19:46;;;;;;;47.78;19.00;;;;;;;;;;5028862;28;20570;-57
2022/08/28 00:22:13;;;;;;;50.65;18.20;;;;;;;;;;5051006;28;20491;-56
2022/08/28 00:24:47;;;;;;;36.63;16.42;;;;;;;;;;5037691;28;20075;-57
2022/08/28 00:30:14;;;;;;;37.30;15.57;;;;;;;;;;5051488;28;20151;-61
2022/08/28 00:32:54;;;;;;;34.53;15.18;;;;;;;;;;5040515;28;20073;-65
2022/08/28 00:35:22;;;;;;;48.17;17.50;;;;;;;;;;5037601;28;20469;-55
2022/08/28 00:37:56;;;;;;;113.35;20.80;;;;;;;;;;5035593;28;20081;-56
2022/08/28 00:40:23;;;;;;;;;;;;;;;;;;5039566;28;20045;-56
2022/08/28 00:42:57;;;;;;;95.95;20.58;;;;;;;;;;5042184;28;19921;-57
2022/08/28 00:45:32;;;;;;;71.57;19.00;;;;;;;;;;5029103;28;20497;-57
2022/08/28 00:48:05;;;;;;;127.13;23.25;;;;;;;;;;5041560;28;20046;-58
2022/08/28 00:53:27;;;;;;;50.40;20.10;;;;;;;;;;5024833;28;20450;-61
2022/08/28 00:56:04;;;;;;;88.03;22.42;;;;;;;;;;5040525;28;20080;-62
2022/08/28 00:58:40;;;;;;;92.05;20.77;;;;;;;;;;5041505;28;20522;-61
2022/08/28 01:01:14;;;;;;;49.90;19.70;;;;;;;;;;5018422;28;20084;-62
2022/08/28 01:03:43;;;;;;;176.05;24.38;;;;;;;;;;5040662;28;20042;-61
2022/08/28 01:06:11;;;;;;;46.40;19.25;;;;;;;;;;5039984;28;20045;-61
2022/08/28 01:08:45;;;;;;;40.58;20.15;;;;;;;;;;5040014;28;20610;-47
2022/08/28 01:11:18;;;;;;;39.85;19.55;;;;;;;;;;5042440;28;20053;-64
2022/08/28 01:13:55;;;;;;;40.55;19.30;;;;;;;;;;5041283;28;20057;-64
2022/08/28 01:16:26;;;;;;;40.10;19.15;;;;;;;;;;5039765;28;20324;-64
2022/08/28 01:19:02;;;;;;;59.55;20.63;;;;;;;;;;5038833;28;20044;-64
2022/08/28 01:21:36;;;;;;;64.45;20.13;;;;;;;;;;5038574;28;20106;-64
2022/08/28 01:24:13;;;;;;;168.43;27.13;;;;;;;;;;5038550;28;20111;-64
2022/08/28 01:26:41;;;;;;;97.43;24.58;;;;;;;;;;5011967;28;20639;-58
2022/08/28 01:29:08;;;;;;;;;;;;;;;;;;5041272;28;20041;-63
2022/08/28 01:31:54;;;;;;;104.88;27.38;;;;;;;;;;5052028;28;19974;-65
2022/08/28 01:34:29;;;;;;;121.78;28.58;;;;;;;;;;5046395;28;20072;-65
2022/08/28 01:37:04;;;;;;;134.23;29.58;;;;;;;;;;5052394;28;20131;-65
2022/08/28 01:39:31;;;;;;;105.00;26.70;;;;;;;;;;5047864;28;20590;-65
2022/08/28 01:41:59;;;;;;;74.13;26.00;;;;;;;;;;5050088;28;20076;-65
2022/08/28 01:44:33;;;;;;;73.00;26.40;;;;;;;;;;5041389;28;20098;-65
2022/08/28 01:47:00;;;;;;;51.55;23.67;;;;;;;;;;5048907;28;20049;-62
2022/08/28 01:49:28;;;;;;;99.63;28.20;;;;;;;;;;5052410;28;20206;-63
2022/08/28 01:52:02;;;;;;;68.22;27.27;;;;;;;;;;5052402;28;20130;-64
2022/08/28 01:54:29;;;;;;;75.55;27.00;;;;;;;;;;5052837;28;20103;-64
2022/08/28 01:56:57;;;;;;;53.88;25.73;;;;;;;;;;5049005;28;20048;-64
2022/08/28 01:59:32;;;;;;;71.18;26.48;;;;;;;;;;5049998;28;20106;-63
2022/08/28 02:01:59;;;;;;;59.67;25.08;;;;;;;;;;5051451;28;20114;-64
2022/08/28 02:04:26;;;;;;;71.10;28.23;;;;;;;;;;5053243;28;20518;-63
2022/08/28 02:07:00;;;;;;;70.07;28.13;;;;;;;;;;5049305;28;20050;-61
2022/08/28 02:09:27;;;;;;;63.75;28.83;;;;;;;;;;5049895;28;20076;-65
2022/08/28 02:11:56;;;;;;;62.75;29.20;;;;;;;;;;5049335;28;20126;-65
2022/08/28 02:14:30;;;;;;;62.53;28.83;;;;;;;;;;5050493;28;20448;-65
2022/08/28 02:16:57;;;;;;;65.38;29.15;;;;;;;;;;5046471;28;20147;-65
2022/08/28 02:19:24;;;;;;;58.50;27.75;;;;;;;;;;5050233;28;20091;-65
2022/08/28 02:21:59;;;;;;;66.43;30.45;;;;;;;;;;5049514;28;20107;-65
2022/08/28 02:24:26;;;;;;;56.33;29.33;;;;;;;;;;5052611;28;20048;-56
2022/08/28 02:26:53;;;;;;;83.22;31.52;;;;;;;;;;5044398;28;20064;-46
2022/08/28 02:29:27;;;;;;;60.95;27.90;;;;;;;;;;5048664;28;22045;-47
2022/08/28 02:32:00;;;;;;;62.58;27.90;;;;;;;;;;5058827;28;20098;-48
2022/08/28 02:34:35;;;;;;;45.28;25.77;;;;;;;;;;5067236;28;20098;-48
2022/08/28 02:37:02;;;;;;;71.32;29.15;;;;;;;;;;5070073;28;20079;-52
2022/08/28 02:39:30;;;;;;;60.20;27.77;;;;;;;;;;5068173;28;20143;-48
2022/08/28 02:42:04;;;;;;;56.90;26.95;;;;;;;;;;5072865;28;20093;-50
2022/08/28 02:44:31;;;;;;;62.03;27.40;;;;;;;;;;5064082;28;20053;-47
2022/08/28 02:46:59;;;;;;;70.05;28.88;;;;;;;;;;5068922;28;20102;-46
2022/08/28 02:49:33;;;;;;;62.65;28.05;;;;;;;;;;5065285;28;20472;-49
2022/08/28 02:52:03;;;;;;;55.05;26.58;;;;;;;;;;5069499;28;20497;-46
2022/08/28 02:54:30;;;;;;;54.47;26.52;;;;;;;;;;5072542;28;20137;-48
2022/08/28 02:57:04;;;;;;;81.82;29.30;;;;;;;;;;5074190;28;20048;-45
2022/08/28 02:59:31;;;;;;;54.67;26.88;;;;;;;;;;5067971;28;20056;-45
2022/08/28 03:01:59;;;;;;;49.65;24.30;;;;;;;;;;5068401;28;20091;-64
2022/08/28 03:04:37;;;;;;;47.65;24.92;;;;;;;;;;5072332;28;20437;-64
2022/08/28 03:07:06;;;;;;;56.42;28.40;;;;;;;;;;5065541;28;20032;-57
2022/08/28 03:09:43;;;;;;;58.63;28.35;;;;;;;;;;5071564;28;20044;-56
2022/08/28 03:12:15;;;;;;;;;;;;;;;;;;5070322;28;20457;-55
2022/08/28 03:14:50;;;;;;;55.17;25.77;;;;;;;;;;5072614;28;19920;-56
2022/08/28 03:17:18;;;;;;;48.50;26.15;;;;;;;;;;5063571;28;20121;-59
2022/08/28 03:19:45;;;;;;;54.30;25.25;;;;;;;;;;5068249;28;20388;-56
2022/08/28 03:23:25;;;;;;;48.38;25.05;;;;;;;;;;5068347;28;20079;-63
2022/08/28 03:25:09;;;;;;;52.88;25.95;;;;;;;;;;5066720;28;20469;-62
2022/08/28 03:27:44;;;;;;;43.53;24.23;;;;;;;;;;5054108;28;20079;-61
2022/08/28 03:30:12;;;;;;;47.17;25.80;;;;;;;;;;5071797;28;20096;-62
2022/08/28 03:32:40;;;;;;;37.50;22.45;;;;;;;;;;5071910;28;20474;-61
2022/08/28 03:35:14;;;;;;;70.22;25.80;;;;;;;;;;5067940;28;20462;-62
2022/08/28 03:37:41;;;;;;;49.88;24.83;;;;;;;;;;5069864;28;20080;-61
2022/08/28 03:40:09;;;;;;;38.97;21.70;;;;;;;;;;5068691;28;20072;-56
2022/08/28 03:42:43;;;;;;;50.53;24.73;;;;;;;;;;5066352;28;20056;-62
2022/08/28 03:45:19;;;;;;;58.80;26.50;;;;;;;;;;5072830;28;20048;-55
2022/08/28 03:47:53;;;;;;;60.55;27.05;;;;;;;;;;5062782;28;20044;-57
2022/08/28 03:50:20;;;;;;;57.55;26.23;;;;;;;;;;5068923;28;20462;-57
2022/08/28 03:52:48;;;;;;;64.43;27.30;;;;;;;;;;5065869;28;20071;-57
2022/08/28 03:55:22;;;;;;;48.28;24.85;;;;;;;;;;5067702;28;20071;-55
2022/08/28 03:57:50;;;;;;;61.63;27.38;;;;;;;;;;5066677;28;20179;-57
2022/08/28 04:00:19;;;;;;;57.53;27.30;;;;;;;;;;5065041;28;20679;-63
2022/08/28 04:02:53;;;;;;;70.85;29.73;;;;;;;;;;5068324;28;20044;-62
2022/08/28 04:05:20;;;;;;;;;;;;;;;;;;5073306;28;20492;-63
2022/08/28 04:07:47;;;;;;;58.22;27.27;;;;;;;;;;5068904;28;20336;-62
2022/08/28 04:10:22;;;;;;;64.43;31.80;;;;;;;;;;5063464;28;20084;-62
2022/08/28 04:12:49;;;;;;;49.75;26.85;;;;;;;;;;5066916;28;20064;-62
2022/08/28 04:15:16;;;;;;;57.88;29.35;;;;;;;;;;5065436;28;20076;-62
2022/08/28 04:17:50;;;;;;;64.40;30.10;;;;;;;;;;5068015;28;20099;-65
2022/08/28 04:20:19;;;;;;;60.67;27.70;;;;;;;;;;5074293;28;20084;-65
2022/08/28 04:22:47;;;;;;;54.70;27.90;;;;;;;;;;5062440;28;20079;-65
2022/08/28 04:25:21;;;;;;;63.08;29.75;;;;;;;;;;5067636;28;20917;-66
2022/08/28 04:27:49;;;;;;;63.33;31.05;;;;;;;;;;5065131;28;20080;-65
2022/08/28 04:30:17;;;;;;;69.82;32.00;;;;;;;;;;5066849;28;20165;-65
2022/08/28 04:32:58;;;;;;;59.40;30.00;;;;;;;;;;5065191;28;20057;-64
2022/08/28 04:35:25;;;;;;;54.47;29.13;;;;;;;;;;5065967;28;20480;-65
2022/08/28 04:38:00;;;;;;;62.75;29.52;;;;;;;;;;5063875;28;20103;-64
2022/08/28 04:40:31;;;;;;;70.07;30.85;;;;;;;;;;5065537;28;20512;-58
2022/08/28 04:42:58;;;;;;;55.58;29.30;;;;;;;;;;5067123;28;20577;-58
2022/08/28 04:45:32;;;;;;;51.80;27.63;;;;;;;;;;5062398;28;20088;-58
2022/08/28 04:47:59;;;;;;;49.13;27.08;;;;;;;;;;5070104;28;20563;-57
2022/08/28 04:50:40;;;;;;;52.47;29.23;;;;;;;;;;5064215;28;20531;-58
2022/08/28 04:53:17;;;;;;;55.55;28.42;;;;;;;;;;5066848;28;20048;-58
2022/08/28 04:55:46;;;;;;;53.97;27.90;;;;;;;;;;5071318;28;20078;-58
2022/08/28 04:58:21;;;;;;;49.95;26.73;;;;;;;;;;5071544;28;20136;-66
2022/08/28 05:00:55;;;;;;;42.65;25.45;;;;;;;;;;5069266;28;20048;-58
2022/08/28 05:03:23;;;;;;;47.40;26.08;;;;;;;;;;5072278;28;20411;-58
2022/08/28 05:05:50;;;;;;;;;;;;;;;;;;5069971;28;20050;-58
2022/08/28 05:08:26;;;;;;;48.38;24.83;;;;;;;;;;5069502;28;19970;-58
2022/08/28 05:10:54;;;;;;;46.53;26.75;;;;;;;;;;5073799;28;20542;-56
2022/08/28 05:13:22;;;;;;;47.88;26.40;;;;;;;;;;5069402;28;20150;-57
2022/08/28 05:15:56;;;;;;;40.65;25.15;;;;;;;;;;5073709;28;20091;-59
2022/08/28 05:18:24;;;;;;;49.35;26.33;;;;;;;;;;5067390;28;20122;-49
2022/08/28 05:20:51;;;;;;;50.05;26.20;;;;;;;;;;5077584;28;20055;-64
2022/08/28 05:23:25;;;;;;;41.25;25.73;;;;;;;;;;5068187;28;20096;-65
2022/08/28 05:25:52;;;;;;;46.20;25.27;;;;;;;;;;5073585;28;20251;-64
2022/08/28 05:28:20;;;;;;;45.58;25.55;;;;;;;;;;5053808;28;20094;-65
2022/08/28 05:31:25;;;;;;;46.90;26.00;;;;;;;;;;5069379;28;20499;-64
2022/08/28 05:33:59;;;;;;;42.33;26.38;;;;;;;;;;5070355;28;20048;-60
2022/08/28 05:36:44;;;;;;;52.67;25.88;;;;;;;;;;5069400;28;20076;-48
2022/08/28 05:39:12;;;;;;;45.42;25.08;;;;;;;;;;5062934;28;20090;-61
2022/08/28 05:41:46;;;;;;;42.05;24.92;;;;;;;;;;5052375;28;20487;-64
2022/08/28 05:44:13;;;;;;;;;;;;;;;;;;5069840;28;20060;-64
2022/08/28 05:46:42;;;;;;;49.42;24.52;;;;;;;;;;5072658;28;19977;-64
2022/08/28 05:49:18;;;;;;;41.55;23.48;;;;;;;;;;5068467;28;20124;-64
2022/08/28 05:51:45;;;;;;;42.25;25.20;;;;;;;;;;5071379;28;20084;-63
2022/08/28 05:54:14;;;;;;;;;;;;;;;;;;5073346;28;20520;-69
2022/08/28 05:56:48;;;;;;;35.53;20.27;;;;;;;;;;5069837;28;19973;-63
2022/08/28 05:59:16;;;;;;;29.02;21.02;;;;;;;;;;5069971;28;20096;-63
2022/08/28 06:01:44;;;;;;;30.92;20.02;;;;;;;;;;5069862;28;20045;-63
2022/08/28 06:04:23;;;;;;;32.13;21.50;;;;;;;;;;5066587;28;20437;-63
2022/08/28 06:06:51;;;;;;;28.42;20.98;;;;;;;;;;5064028;28;20044;-63
2022/08/28 06:09:22;;;;;;;26.25;19.92;;;;;;;;;;5065427;28;20520;-62
2022/08/28 06:11:59;;;;;;;25.60;19.50;;;;;;;;;;5057941;28;20059;-62
2022/08/28 06:14:28;;;;;;;23.92;17.67;;;;;;;;;;5055492;28;20048;-63
2022/08/28 06:16:55;;;;;;;26.05;17.65;;;;;;;;;;5066448;28;20079;-65
2022/08/28 06:19:30;;;;;;;23.80;17.33;;;;;;;;;;5073319;28;20107;-65
2022/08/28 06:21:58;;;;;;;21.60;16.05;;;;;;;;;;5069928;28;20088;-66
2022/08/28 06:24:26;;;;;;;26.33;17.00;;;;;;;;;;5072410;28;20139;-66
2022/08/28 06:27:00;;;;;;;18.60;12.55;;;;;;;;;;5072422;28;20098;-66
2022/08/28 06:29:28;;;;;;;19.02;13.65;;;;;;;;;;5072876;28;20040;-66
2022/08/28 06:31:57;;;;;;;16.83;13.02;;;;;;;;;;5066175;28;20060;-64
2022/08/28 06:34:38;;;;;;;19.13;13.07;;;;;;;;;;5060728;28;20467;-63
2022/08/28 06:37:05;;;;;;;17.42;12.30;;;;;;;;;;5072017;28;20565;-53
2022/08/28 06:39:39;;;;;;;16.27;11.00;;;;;;;;;;5070464;28;20076;-52
2022/08/28 06:42:07;;;;;;;13.20;9.35;;;;;;;;;;5067979;28;20499;-51
2022/08/28 06:44:36;;;;;;;12.20;9.57;;;;;;;;;;5065164;28;20228;-52
2022/08/28 06:47:10;;;;;;;11.10;8.07;;;;;;;;;;5067620;28;20099;-50
2022/08/28 06:49:37;;;;;;;;;;;;;;;;;;5074111;28;20047;-50
2022/08/28 06:52:05;;;;;;;9.23;6.82;;;;;;;;;;5071107;28;20276;-66
2022/08/28 06:54:39;;;;;;;8.85;6.50;;;;;;;;;;5068120;28;20083;-71
2022/08/28 06:57:21;;;;;;;9.43;6.55;;;;;;;;;;5072782;28;20050;-71
2022/08/28 06:59:58;;;;;;;8.90;6.35;;;;;;;;;;5071029;28;20487;-70
2022/08/28 07:02:25;;;;;;;6.75;5.78;;;;;;;;;;5073661;28;20447;-71
2022/08/28 07:04:55;;;;;;;8.50;5.43;;;;;;;;;;5071445;28;20044;-70
2022/08/28 07:07:29;;;;;;;8.02;5.63;;;;;;;;;;5068666;28;20102;-71
2022/08/28 07:09:58;;;;;;;9.95;5.50;;;;;;;;;;5068635;28;20057;-65
2022/08/28 07:12:25;;;;;;;8.60;5.70;;;;;;;;;;5069591;28;20058;-65
2022/08/28 07:15:00;;;;;;;6.68;5.20;;;;;;;;;;5069284;28;20049;-62
2022/08/28 07:17:27;;;;;;;5.63;4.90;;;;;;;;;;5065987;28;20135;-62
2022/08/28 07:19:54;;;;;;;10.52;5.80;;;;;;;;;;5070423;28;20064;-61
2022/08/28 07:22:28;;;;;;;5.13;4.63;;;;;;;;;;5068004;28;20083;-62
2022/08/28 07:24:56;;;;;;;6.63;4.65;;;;;;;;;;5071596;28;20082;-61
2022/08/28 07:27:24;;;;;;;8.63;4.95;;;;;;;;;;5067344;28;20099;-61
2022/08/28 07:29:58;;;;;;;7.47;5.00;;;;;;;;;;5069708;28;20121;-66
2022/08/28 07:32:38;;;;;;;5.97;4.47;;;;;;;;;;5069255;28;20076;-64
2022/08/28 07:35:13;;;;;;;6.93;4.80;;;;;;;;;;5067218;28;20385;-66
2022/08/28 07:37:40;;;;;;;4.75;4.00;;;;;;;;;;5048126;28;20145;-64
2022/08/28 07:40:09;;;;;;;4.25;3.75;;;;;;;;;;5069759;28;20559;-64
2022/08/28 07:45:29;;;;;;;4.07;3.63;;;;;;;;;;4147434;28;10000636;-64
2022/08/28 07:48:07;;;;;;;5.05;3.65;;;;;;;;;;5004079;28;20103;-64
2022/08/28 07:50:37;;;;;;;7.05;4.13;;;;;;;;;;4137021;28;10000978;-66
2022/08/28 07:53:11;;;;;;;3.42;3.00;;;;;;;;;;5005235;28;20136;-64
2022/08/28 07:55:38;;;;;;;4.50;3.25;;;;;;;;;;5004799;28;20054;-64
2022/08/28 07:58:06;;;;;;;4.20;3.10;;;;;;;;;;5001291;28;20591;-63
2022/08/28 08:00:41;;;;;;;4.97;3.25;;;;;;;;;;5005573;28;20948;-63
2022/08/28 08:03:08;;;;;;;2.80;2.60;;;;;;;;;;5004645;28;20568;-63
2022/08/28 08:05:36;;;;;;;3.10;2.80;;;;;;;;;;5005850;28;20050;-63
2022/08/28 08:08:10;;;;;;;5.82;2.72;;;;;;;;;;5003219;28;20120;-53
2022/08/28 08:10:37;;;;;;;;;;;;;;;;;;5006522;28;20076;-60
2022/08/28 08:13:04;;;;;;;2.83;2.15;;;;;;;;;;5004311;28;19969;-60
2022/08/28 08:15:41;;;;;;;3.10;2.08;;;;;;;;;;5004099;28;20081;-59
2022/08/28 08:18:08;;;;;;;2.28;1.95;;;;;;;;;;5004483;28;20528;-60
2022/08/28 08:20:37;;;;;;;3.13;2.30;;;;;;;;;;5005734;28;20057;-60
2022/08/28 08:23:11;;;;;;;2.45;1.85;;;;;;;;;;5005520;28;20081;-60
2022/08/28 08:25:39;;;;;;;2.20;1.58;;;;;;;;;;5003332;28;20080;-60
2022/08/28 08:28:06;;;;;;;3.10;1.80;;;;;;;;;;5003592;28;20097;-48
2022/08/28 08:30:42;;;;;;;1.90;1.70;;;;;;;;;;4999937;28;20262;-52
2022/08/28 08:33:15;;;;;;;2.10;1.90;;;;;;;;;;5002759;28;20061;-54
2022/08/28 08:35:50;;;;;;;5.75;1.58;;;;;;;;;;5005738;28;20652;-55
2022/08/28 08:38:18;;;;;;;1.50;1.40;;;;;;;;;;5007532;28;20509;-53
2022/08/28 08:40:45;;;;;;;2.15;1.20;;;;;;;;;;5009691;28;20081;-54
2022/08/28 08:43:20;;;;;;;2.92;1.20;;;;;;;;;;5009811;28;20408;-55
2022/08/28 08:45:49;;;;;;;1.88;1.38;;;;;;;;;;5009801;28;20473;-72
2022/08/28 08:48:31;;;;;;;1.40;1.30;;;;;;;;;;5004528;28;20286;-62
2022/08/28 08:51:10;;;;;;;1.70;1.20;;;;;;;;;;4995135;28;20113;-63
2022/08/28 08:53:44;;;;;;;1.20;1.00;;;;;;;;;;5005767;28;20143;-63
2022/08/28 08:56:20;;;;;;;1.13;1.08;;;;;;;;;;5006888;28;20050;-63
2022/08/28 08:58:49;;;;;;;0.95;0.93;;;;;;;;;;5008878;28;20458;-63
2022/08/28 09:01:20;;;;;;;2.03;1.15;;;;;;;;;;5006741;28;20160;-63
2022/08/28 09:04:09;;;;;;;1.17;1.08;;;;;;;;;;5007318;28;20115;-60
2022/08/28 09:06:44;;;;;;;1.98;1.02;;;;;;;;;;5008255;28;20617;-62
2022/08/28 09:09:25;;;;;;;1.67;1.30;;;;;;;;;;5005688;28;20505;-72
2022/08/28 09:11:58;;;;;;;2.38;1.27;;;;;;;;;;5009281;28;20089;-71
2022/08/28 09:14:32;;;;;;;1.70;1.00;;;;;;;;;;5003491;28;20100;-73
2022/08/28 09:17:00;;;;;;;4.85;1.17;;;;;;;;;;4999809;28;20128;-73
2022/08/28 09:19:27;;;;;;;0.98;0.80;;;;;;;;;;5006572;28;20110;-73
2022/08/28 09:22:01;;;;;;;1.10;1.08;;;;;;;;;;5004583;28;20100;-76
2022/08/28 09:24:31;;;;;;;2.78;1.17;;;;;;;;;;5007043;28;20157;-63
2022/08/28 09:27:06;;;;;;;0.90;0.90;;;;;;;;;;5008264;28;20505;-53
2022/08/28 09:29:42;;;;;;;0.80;0.80;;;;;;;;;;5007152;28;20038;-52
2022/08/28 09:32:43;;;;;;;1.30;1.20;;;;;;;;;;5005187;28;20092;-50
2022/08/28 09:35:23;;;;;;;0.98;0.85;;;;;;;;;;5002869;28;20509;-51
2022/08/28 09:37:51;;;;;;;1.92;1.00;;;;;;;;;;5008433;28;20077;-53
2022/08/28 09:43:25;;;;;;;0.82;0.82;;;;;;;;;;5004842;28;20086;-54
2022/08/28 09:43:26;;;;;;;1.98;1.10;;;;;;;;;;5008013;28;20224;-64
2022/08/28 09:46:02;;;;;;;1.40;0.80;;;;;;;;;;4992796;28;20502;-53
2022/08/28 09:48:32;;;;;;;3.22;0.88;;;;;;;;;;5007856;28;20433;-50
2022/08/28 09:51:10;;;;;;;1.05;0.80;;;;;;;;;;5005472;28;20100;-51
2022/08/28 09:53:50;;;;;;;1.45;0.70;;;;;;;;;;5001781;28;20565;-52
2022/08/28 09:56:20;;;;;;;1.10;0.80;;;;;;;;;;4987873;28;20081;-51
2022/08/28 09:59:05;;;;;;;0.81;0.69;;;;;;;;;;4929623;28;10000578;-55
2022/08/28 10:01:52;;;;;;;0.52;0.52;;;;;;;;;;4483064;28;10001581;-63
2022/08/28 10:04:32;;;;;;;0.80;0.50;;;;;;;;;;5004957;28;20046;-67
2022/08/28 10:07:09;;;;;;;0.75;0.55;;;;;;;;;;5005961;28;20056;-67
2022/08/28 10:10:02;;;;;;;0.50;0.50;;;;;;;;;;5006704;28;20093;-68
2022/08/28 10:12:51;;;;;;;0.55;0.40;;;;;;;;;;5007757;28;20069;-66
2022/08/28 10:15:28;;;;;;;2.50;0.50;;;;;;;;;;5005669;28;20116;-67
2022/08/28 10:18:03;;;;;;;1.38;0.60;;;;;;;;;;5007112;28;20688;-67
2022/08/28 10:20:50;;;;;;;1.48;0.60;;;;;;;;;;5004963;28;20049;-64
2022/08/28 10:23:17;;;;;;;0.52;0.40;;;;;;;;;;5002783;28;20108;-74
2022/08/28 10:25:59;;;;;;;0.47;0.47;;;;;;;;;;5006131;28;20123;-48
2022/08/28 10:28:39;;;;;;;0.45;0.30;;;;;;;;;;5006824;28;20057;-50
2022/08/28 10:31:22;;;;;;;0.40;0.40;;;;;;;;;;5006768;28;20409;-51
2022/08/28 10:34:10;;;;;;;2.58;0.60;;;;;;;;;;5004304;28;20054;-49
2022/08/28 10:36:51;;;;;;;2.42;0.47;;;;;;;;;;5006401;28;20081;-48
2022/08/28 10:39:31;;;;;;;0.90;0.43;;;;;;;;;;5002893;28;20143;-72
2022/08/28 10:42:05;;;;;;;0.60;0.50;;;;;;;;;;5001873;28;20046;-52
2022/08/28 10:44:33;;;;;;;;;;;;;;;;;;5006950;28;20126;-55
2022/08/28 10:47:02;;;;;;;1.05;0.50;;;;;;;;;;5004513;28;19964;-55
2022/08/28 10:49:44;;;;;;;0.80;0.50;;;;;;;;;;5004625;28;20410;-55
2022/08/28 10:52:17;;;;;;;3.83;0.80;;;;;;;;;;4996471;28;20402;-54
2022/08/28 10:54:56;;;;;;;0.70;0.50;;;;;;;;;;5006281;28;20076;-54
2022/08/28 10:57:23;;;;;;;3.17;0.68;;;;;;;;;;5007557;28;20046;-55
2022/08/28 10:59:52;;;;;;;0.60;0.60;;;;;;;;;;5004900;28;20542;-60
2022/08/28 11:02:27;;;;;;;1.67;1.10;;;;;;;;;;5006611;28;20100;-70
2022/08/28 11:05:03;;;;;;;1.30;0.80;;;;;;;;;;5005733;28;20053;-70
2022/08/28 11:07:48;;;;;;;0.75;0.75;;;;;;;;;;5004524;28;20123;-72
2022/08/28 11:10:22;;;;;;;1.00;0.70;;;;;;;;;;4996280;28;20073;-72
2022/08/28 11:12:56;;;;;;;0.40;0.40;;;;;;;;;;5001916;28;20681;-71
2022/08/28 11:15:26;;;;;;;3.17;0.50;;;;;;;;;;5004165;28;20120;-70
2022/08/28 11:18:14;;;;;;;1.80;0.73;;;;;;;;;;5003883;28;20959;-64
2022/08/28 11:20:59;;;;;;;1.48;0.70;;;;;;;;;;4996429;28;20060;-64
2022/08/28 11:23:28;;;;;;;;;;;;;;;;;;5006302;28;20084;-63
2022/08/28 11:26:06;;;;;;;1.73;0.63;;;;;;;;;;4977807;28;19933;-64
2022/08/28 11:28:36;;;;;;;3.22;0.60;;;;;;;;;;5000933;28;20474;-64
2022/08/28 11:31:10;;;;;;;1.08;0.50;;;;;;;;;;5004115;28;20559;-63
2022/08/28 11:34:03;;;;;;;0.88;0.47;;;;;;;;;;5000752;28;20061;-64
2022/08/28 11:36:37;;;;;;;0.98;0.57;;;;;;;;;;5004366;28;20046;-59
2022/08/28 11:39:10;;;;;;;2.03;0.50;;;;;;;;;;5004437;28;20077;-59
2022/08/28 11:42:19;;;;;;;1.17;0.70;;;;;;;;;;5000105;28;20053;-64
2022/08/28 11:44:47;;;;;;;0.95;0.45;;;;;;;;;;4936715;28;20161;-63
2022/08/28 11:47:34;;;;;;;2.17;0.50;;;;;;;;;;4985631;28;20137;-63
2022/08/28 11:50:12;;;;;;;0.57;0.50;;;;;;;;;;5005154;28;20074;-64
2022/08/28 11:53:03;;;;;;;1.40;0.43;;;;;;;;;;4994625;28;20042;-63
2022/08/28 11:55:43;;;;;;;0.95;0.50;;;;;;;;;;5006454;28;20619;-67
2022/08/28 11:58:23;;;;;;;0.52;0.40;;;;;;;;;;5001471;28;20056;-59
2022/08/28 12:00:54;;;;;;;0.57;0.50;;;;;;;;;;5006271;28;20120;-52
2022/08/28 12:03:54;;;;;;;1.02;0.70;;;;;;;;;;5005103;28;20100;-52
2022/08/28 12:06:40;;;;;;;1.77;0.50;;;;;;;;;;5004895;28;20073;-52
2022/08/28 12:09:33;;;;;;;1.45;0.88;;;;;;;;;;5006467;28;20205;-52
2022/08/28 12:12:20;;;;;;;1.45;0.52;;;;;;;;;;5010264;28;20049;-53
2022/08/28 12:14:54;;;;;;;1.63;0.50;;;;;;;;;;4975021;28;20069;-67
2022/08/28 12:17:21;;;;;;;1.38;0.75;;;;;;;;;;5002842;28;20124;-50
2022/08/28 12:19:55;;;;;;;0.52;0.52;;;;;;;;;;5010048;28;20058;-52
2022/08/28 12:22:43;;;;;;;0.57;0.55;;;;;;;;;;5008339;28;20087;-49
2022/08/28 12:25:17;;;;;;;1.38;0.70;;;;;;;;;;5009878;28;20081;-50
2022/08/28 12:27:52;;;;;;;1.75;0.70;;;;;;;;;;5001772;28;20557;-51
2022/08/28 12:30:29;;;;;;;1.33;0.43;;;;;;;;;;5009539;28;21035;-51
2022/08/28 12:33:31;;;;;;;2.03;0.50;;;;;;;;;;4996882;28;20066;-61
2022/08/28 12:36:07;;;;;;;1.35;0.35;;;;;;;;;;4984188;28;20034;-67
2022/08/28 12:38:48;;;;;;;0.30;0.30;;;;;;;;;;4989053;28;20093;-59
2022/08/28 12:41:16;;;;;;;0.93;0.25;;;;;;;;;;4990033;28;20469;-59
2022/08/28 12:43:54;;;;;;;1.75;0.30;;;;;;;;;;4988010;28;20177;-59
2022/08/28 12:46:25;;;;;;;0.35;0.30;;;;;;;;;;4989195;28;20038;-59
2022/08/28 12:49:00;;;;;;;0.68;0.30;;;;;;;;;;4988751;28;20049;-59
2022/08/28 12:51:29;;;;;;;0.32;0.30;;;;;;;;;;4985952;28;20086;-59
2022/08/28 12:53:58;;;;;;;0.32;0.30;;;;;;;;;;4986375;28;20154;-66
2022/08/28 12:56:34;;;;;;;1.52;0.30;;;;;;;;;;4988223;28;20086;-68
2022/08/28 12:59:20;;;;;;;0.30;0.28;;;;;;;;;;4985636;28;20054;-68
2022/08/28 13:02:00;;;;;;;0.75;0.25;;;;;;;;;;4986870;28;20054;-68
2022/08/28 13:04:31;;;;;;;0.30;0.30;;;;;;;;;;4988203;28;20129;-68
2022/08/28 13:07:14;;;;;;;0.75;0.22;;;;;;;;;;4987406;28;20050;-67
2022/08/28 13:09:46;;;;;;;0.20;0.20;;;;;;;;;;4982902;28;20496;-67
2022/08/28 13:12:26;;;;;;;0.70;0.28;;;;;;;;;;4985575;28;20046;-61
2022/08/28 13:15:13;;;;;;;1.52;0.50;;;;;;;;;;4986272;28;20052;-60
2022/08/28 13:17:52;;;;;;;1.37;0.30;;;;;;;;;;4990364;28;20085;-60
2022/08/28 13:20:30;;;;;;;0.28;0.28;;;;;;;;;;4987401;28;20305;-60
2022/08/28 13:23:04;;;;;;;0.32;0.30;;;;;;;;;;4987296;28;20050;-60
2022/08/28 13:25:34;;;;;;;1.30;0.40;;;;;;;;;;4982991;28;20089;-60
2022/08/28 13:28:10;;;;;;;0.25;0.25;;;;;;;;;;4986938;28;20467;-60
2022/08/28 13:30:55;;;;;;;0.52;0.47;;;;;;;;;;4977676;28;20042;-50
2022/08/28 13:33:29;;;;;;;0.82;0.70;;;;;;;;;;4997749;28;20105;-51
2022/08/28 13:36:25;;;;;;;0.32;0.30;;;;;;;;;;5008136;28;20073;-66
2022/08/28 13:38:52;;;;;;;1.48;0.32;;;;;;;;;;5006452;28;20108;-66
2022/08/28 13:41:28;;;;;;;0.40;0.32;;;;;;;;;;5008889;28;20141;-66
2022/08/28 13:43:56;;;;;;;3.47;0.60;;;;;;;;;;4998723;28;20121;-66
2022/08/28 13:46:23;;;;;;;1.27;0.30;;;;;;;;;;5007598;28;20482;-66
2022/08/28 13:48:57;;;;;;;0.50;0.50;;;;;;;;;;5006591;28;20037;-66
2022/08/28 13:51:25;;;;;;;0.30;0.30;;;;;;;;;;5006931;28;20091;-60
2022/08/28 13:53:53;;;;;;;0.85;0.40;;;;;;;;;;5006898;28;20801;-51
2022/08/28 13:56:27;;;;;;;0.40;0.40;;;;;;;;;;5008603;28;20049;-53
2022/08/28 13:58:54;;;;;;;;;;;;;;;;;;5004103;28;20139;-52
2022/08/28 14:03:34;;;;;;;;;;;;;;;;;;5003864;28;19975;-52
2022/08/28 14:04:17;;;;;;;1.35;0.60;;;;;;;;;;5007019;28;19926;-54
2022/08/28 14:06:44;;;;;;;1.70;0.60;;;;;;;;;;5007448;28;20093;-54
2022/08/28 14:09:14;;;;;;;0.60;0.60;;;;;;;;;;5006202;28;20077;-66
2022/08/28 14:11:48;;;;;;;0.40;0.40;;;;;;;;;;5007845;28;20528;-70
2022/08/28 14:14:16;;;;;;;1.35;0.55;;;;;;;;;;5000926;28;20085;-62
2022/08/28 14:16:44;;;;;;;;;;;;;;;;;;5004614;28;20180;-63
2022/08/28 14:19:18;;;;;;;1.77;0.50;;;;;;;;;;5006045;28;19926;-63
2022/08/28 14:21:46;;;;;;;0.20;0.20;;;;;;;;;;5005484;28;20517;-63
2022/08/28 14:24:13;;;;;;;0.50;0.40;;;;;;;;;;5003334;28;20136;-63
2022/08/28 14:26:51;;;;;;;0.32;0.32;;;;;;;;;;5005927;28;20221;-64
2022/08/28 14:29:18;;;;;;;2.92;0.40;;;;;;;;;;5001952;28;20137;-53
2022/08/28 14:31:45;;;;;;;0.20;0.20;;;;;;;;;;5005015;28;20073;-55
2022/08/28 14:34:30;;;;;;;;;;;;;;;;;;5004736;28;20065;-51
2022/08/28 14:37:05;;;;;;;0.40;0.40;;;;;;;;;;5005138;28;19922;-54
2022/08/28 14:39:41;;;;;;;0.20;0.20;;;;;;;;;;5006350;28;20133;-54
2022/08/28 14:42:09;;;;;;;2.28;0.40;;;;;;;;;;5007281;28;20069;-55
2022/08/28 14:44:39;;;;;;;0.55;0.55;;;;;;;;;;5003415;28;20553;-56
2022/08/28 14:47:13;;;;;;;0.50;0.50;;;;;;;;;;5005286;28;20069;-64
2022/08/28 14:49:40;;;;;;;0.55;0.52;;;;;;;;;;5005981;28;20046;-68
2022/08/28 14:52:08;;;;;;;0.60;0.60;;;;;;;;;;5006990;28;20076;-62
2022/08/28 14:54:46;;;;;;;0.60;0.60;;;;;;;;;;5006243;28;20477;-61
2022/08/28 14:57:14;;;;;;;0.60;0.60;;;;;;;;;;5004550;28;20096;-61
2022/08/28 14:59:41;;;;;;;2.65;0.80;;;;;;;;;;5006746;28;20074;-61
2022/08/28 15:02:15;;;;;;;1.05;0.95;;;;;;;;;;5005977;28;20108;-62
2022/08/28 15:04:42;;;;;;;0.80;0.80;;;;;;;;;;4999440;28;20081;-62
2022/08/28 15:07:11;;;;;;;4.47;1.00;;;;;;;;;;5005339;28;20149;-70
2022/08/28 15:09:45;;;;;;;0.90;0.90;;;;;;;;;;5006618;28;20046;-70
2022/08/28 15:12:13;;;;;;;0.70;0.70;;;;;;;;;;5007066;28;20081;-69
2022/08/28 15:14:42;;;;;;;1.02;0.77;;;;;;;;;;5005076;28;20079;-69
2022/08/28 15:17:23;;;;;;;1.55;0.82;;;;;;;;;;5006906;28;20085;-70
2022/08/28 15:20:00;;;;;;;3.53;1.20;;;;;;;;;;5004829;28;20050;-70
2022/08/28 15:22:35;;;;;;;0.82;0.82;;;;;;;;;;5002607;28;20058;-70